^^
LKKV - Karlovy Vary, Czech Republic
Entfernung von Station: O 36km
Aktualisierung: 23.03.2017 01:00
Bedeckt
Bedeckt
 Wind von NO
Wind: NO 7 km/h
Temperatur: 4°C
Windkühle: 2°C
Taupunkt: 3°C
Luftfeuchte: 93%
Luftdruck: 1015 hPa
Wolken: Bedeckt
Sicht: 10 km
Wolken Details: Bedeckt 213 m
2017/03/23 00:00 LKKV 230000Z 04004KT 010V070 9999 OVC007 04/03 Q1015
EDQM - Hof, Germany
Entfernung von Station: W 40km
Aktualisierung: 22.03.2017 19:50
nicht aktuell
Bedeckt
Bedeckt
 Wind von OSO
Wind: OSO 11 km/h
Temperatur: 3°C
Windkühle: 0°C
Taupunkt: 2°C
Luftfeuchte: 93%
Luftdruck: 1014 hPa
Wolken: Bedeckt
Sicht: 10 km
Wolken Details: stark bewölkt 274 m
Bedeckt 975 m
2017/03/22 18:50 EDQM 221850Z 12006KT 9999 BKN009 OVC032 03/02 Q1014
 
ETIC - Grafenwoehr, Germany
Entfernung von Station: SSW 72km
Aktualisierung: 23.03.2017 00:58
Bedeckt
Bedeckt
 Wind von ONO
Wind: ONO 7 km/h
Temperatur: 5°C
Windkühle: 3°C
Taupunkt: 4°C
Luftfeuchte: 93%
Luftdruck: 1014.2 hPa
Wolken: Bedeckt
Sicht: 10 km
Wolken Details: Bedeckt 274 m
2017/03/22 23:58 ETIC 222358Z AUTO 06004KT 9999 OVC009 05/04 A2995 RMK AO2 SLP157 60001 58001
EDAC - Altenburg-Nobitz, Germany
Entfernung von Station: N 80km
Aktualisierung: 21.03.2017 17:20
nicht aktuell
leichter Regen, Bedeckt
leichter Regen, Bedeckt
 Wind von SW
Wind: SW 24 km/h
Temperatur: 9°C
Windkühle: 6°C
Taupunkt: 8°C
Luftfeuchte: 94%
Luftdruck: 1009 hPa
Zusammenfassung: Nieselregen
Wolken: Bedeckt
Sicht: 10 km
Wolken Details: wolkig 762 m
Bedeckt 4572 m
2017/03/21 16:20 EDAC 211620Z 23013KT 9999 -RA SCT025 OVC150 09/08 Q1009
 
LKLN - Plzen Line, Czech Republic
Entfernung von Station: SO 88km
Aktualisierung: 23.03.2017 01:06
Nebel, Bedeckt
Nebel, Bedeckt
 Wind von NNO
Wind: NNO 6 km/h
Temperatur: 5°C
Taupunkt: 5°C
Luftfeuchte: 100%
Luftdruck: 1015 hPa
Zusammenfassung: Nebel
Wolken: Bedeckt
Sicht: 5 km
Wolken Details: Bedeckt 427 m
2017/03/23 00:06 LKLN 230006Z AUTO 02003KT 340V060 4700 BR OVC014 05/05 Q1015
ETIH - Hohenfels (usa-A, Germany
Entfernung von Station: SSW 124km
Aktualisierung: 23.03.2017 01:16
Bedeckt
Bedeckt
 Wind von calm
Wind: Windstill
Temperatur: 5°C
Taupunkt: 5°C
Luftfeuchte: 100%
Luftdruck: 1013.9 hPa
Wolken: Bedeckt
Sicht: 10 km
Wolken Details: wolkig 213 m
Bedeckt 549 m
2017/03/23 00:16 ETIH 230016Z AUTO 00000KT 9999 SCT007 OVC018 05/05 A2994 RMK AO2 CIG 007V018
 
EDDE - Erfurt/Bindersleben, Germany
Entfernung von Station: NW 129km
Aktualisierung: 23.03.2017 01:20
stark bewölkt
stark bewölkt
 Wind von O
Wind: O 6 km/h
Temperatur: 5°C
Taupunkt: 4°C
Luftfeuchte: 93%
Luftdruck: 1015 hPa
Wolken: stark bewölkt
Sicht: 10 km
Wolken Details: stark bewölkt 610 m
2017/03/23 00:20 EDDE 230020Z 09003KT 9999 BKN020 05/04 Q1015
EDDP - Leipzig/Schkeudidtz, Germany
Entfernung von Station: N 129km
Aktualisierung: 23.03.2017 01:20
stark bewölkt
stark bewölkt
 Wind von O
Wind: O 22 km/h
Temperatur: 6°C
Windkühle: 2°C
Taupunkt: 3°C
Luftfeuchte: 81%
Luftdruck: 1016 hPa
Wolken: stark bewölkt
Sicht: 10 km
Wolken Details: teils wolkig 884 m
stark bewölkt 2743 m
2017/03/23 00:20 EDDP 230020Z 10012KT 9999 FEW029 BKN090 06/03 Q1016 NOSIG
 
EDDN - Nuernberg, Germany
Entfernung von Station: SW 130km
Aktualisierung: 23.03.2017 01:20
stark bewölkt
stark bewölkt
 Wind von O
Wind: O 9 km/h
Temperatur: 5°C
Windkühle: 3°C
Taupunkt: 5°C
Luftfeuchte: 100%
Luftdruck: 1014 hPa
Wolken: stark bewölkt
Sicht: 9 km
Wolken Details: teils wolkig 274 m
stark bewölkt 518 m
2017/03/23 00:20 EDDN 230020Z 08005KT 040V110 9000 FEW009 BKN017 05/05 Q1014
LKPR - Prague/Ruzyne, Czech Republic
Entfernung von Station: O 133km
Aktualisierung: 23.03.2017 01:00
Klar
Klar
 Wind von ONO
Wind: ONO 13 km/h
Temperatur: 2°C
Windkühle: -1°C
Taupunkt: 1°C
Luftfeuchte: 93%
Luftdruck: 1016 hPa
Zusammenfassung: Klar
Sicht: mehr als 10 km
2017/03/23 00:00 LKPR 230000Z 06007KT CAVOK 02/01 Q1016 NOSIG
 
EDDC - Dresden/Klotzsche, Germany
Entfernung von Station: NO 134km
Aktualisierung: 23.03.2017 01:20
leichter Regen, stark bewölkt
leichter Regen, stark bewölkt
 Wind von O
Wind: O 6 km/h
Temperatur: 6°C
Taupunkt: 2°C
Luftfeuchte: 76%
Luftdruck: 1017 hPa
Zusammenfassung: Nieselregen
Wolken: stark bewölkt
Sicht: 10 km
Wolken Details: wolkig 792 m
stark bewölkt 1158 m
2017/03/23 00:20 EDDC 230020Z 10003KT 9999 -RA SCT026 BKN038 06/02 Q1017
Besucherstatistik
Besucher gesamt: 541.780
Besucher heute: 116
Besucher gestern: 1.095
Besucher pro Tag: 745,85
gerade online: 22
max. online: 156
Seitenaufrufe diese Seite: 1.778
counter Statistiken